createdAt,value
2019-03-12T00:00:07.595Z,3.50
2019-03-12T00:02:33.799Z,3.40
2019-03-12T00:05:00.120Z,3.40
2019-03-12T00:07:26.518Z,3.40
2019-03-12T00:09:53.964Z,3.30
2019-03-12T00:12:20.646Z,3.30
2019-03-12T00:14:46.867Z,3.30
2019-03-12T00:17:13.062Z,3.20
2019-03-12T00:19:39.599Z,3.20
2019-03-12T00:22:05.807Z,3.20
2019-03-12T00:24:32.236Z,3.20
2019-03-12T00:26:58.431Z,3.20
2019-03-12T00:29:24.656Z,3.10
2019-03-12T00:31:50.863Z,3.10
2019-03-12T00:34:17.089Z,3.20
2019-03-12T00:36:43.300Z,3.20
2019-03-12T00:39:09.512Z,3.20
2019-03-12T00:41:35.726Z,3.20
2019-03-12T00:44:01.966Z,3.20
2019-03-12T00:46:28.182Z,3.30
2019-03-12T00:48:59.258Z,3.30
2019-03-12T00:51:25.476Z,3.30
2019-03-12T00:53:51.674Z,3.30
2019-03-12T00:56:17.898Z,3.40
2019-03-12T00:58:44.103Z,3.30
2019-03-12T01:01:10.323Z,3.30
2019-03-12T01:03:36.858Z,3.20
2019-03-12T01:06:03.183Z,3.20
2019-03-12T01:08:29.421Z,3.30
2019-03-12T01:10:55.649Z,3.30
2019-03-12T01:13:22.191Z,3.30
2019-03-12T01:15:48.415Z,3.30
2019-03-12T01:18:14.721Z,3.40
2019-03-12T01:20:40.918Z,3.40
2019-03-12T01:23:07.243Z,3.50
2019-03-12T01:25:33.447Z,3.60
2019-03-12T01:27:59.714Z,3.60
2019-03-12T01:30:25.910Z,3.60
2019-03-12T01:32:52.131Z,3.60
2019-03-12T01:35:18.359Z,3.60
2019-03-12T01:37:44.570Z,3.60
2019-03-12T01:40:12.612Z,3.60
2019-03-12T01:42:38.994Z,3.50
2019-03-12T01:45:08.599Z,3.60
2019-03-12T01:47:34.997Z,3.60
2019-03-12T01:50:01.832Z,3.50
2019-03-12T01:52:28.045Z,3.50
2019-03-12T01:54:54.246Z,3.40
2019-03-12T01:57:20.472Z,3.50
2019-03-12T01:59:46.670Z,3.50
2019-03-12T02:02:12.994Z,3.50
2019-03-12T02:04:39.226Z,3.40
2019-03-12T02:07:05.437Z,3.30
2019-03-12T02:09:31.766Z,3.30
2019-03-12T02:11:57.975Z,3.20
2019-03-12T02:14:26.624Z,3.20
2019-03-12T02:16:52.922Z,3.10
2019-03-12T02:19:19.152Z,3.10
2019-03-12T02:21:45.355Z,3.10
2019-03-12T02:24:11.686Z,3.10
2019-03-12T02:26:38.091Z,3.10
2019-03-12T02:29:04.310Z,3.10
2019-03-12T02:31:30.507Z,3.10
2019-03-12T02:33:57.001Z,3.20
2019-03-12T02:36:23.516Z,3.20
2019-03-12T02:38:49.832Z,3.20
2019-03-12T02:41:16.290Z,3.20
2019-03-12T02:43:42.491Z,3.20
2019-03-12T02:46:08.711Z,3.20
2019-03-12T02:48:34.911Z,3.20
2019-03-12T02:51:01.514Z,3.20
2019-03-12T02:53:27.720Z,3.20
2019-03-12T02:55:53.958Z,3.20
2019-03-12T02:58:20.253Z,3.20
2019-03-12T03:00:46.474Z,3.20
2019-03-12T03:03:12.677Z,3.20
2019-03-12T03:05:40.800Z,3.20
2019-03-12T03:08:10.899Z,3.30
2019-03-12T03:10:37.210Z,3.30
2019-03-12T03:13:03.731Z,3.40
2019-03-12T03:15:34.777Z,3.40
2019-03-12T03:18:01.267Z,3.40
2019-03-12T03:20:27.463Z,3.50
2019-03-12T03:22:53.784Z,3.50
2019-03-12T03:25:20.086Z,3.50
2019-03-12T03:27:46.518Z,3.50
2019-03-12T03:30:18.883Z,3.50
2019-03-12T03:32:45.151Z,3.50
2019-03-12T03:35:11.928Z,3.50
2019-03-12T03:37:38.222Z,3.60
2019-03-12T03:40:05.350Z,3.70
2019-03-12T03:42:31.547Z,3.70
2019-03-12T03:44:57.774Z,3.80
2019-03-12T03:47:24.046Z,3.90
2019-03-12T03:49:50.239Z,3.90
2019-03-12T03:52:16.461Z,3.90
2019-03-12T03:54:42.989Z,4.00
2019-03-12T03:57:09.311Z,4.00
2019-03-12T03:59:35.613Z,4.00
2019-03-12T04:02:01.817Z,4.10
2019-03-12T04:04:28.031Z,4.00
2019-03-12T04:06:54.236Z,4.10
2019-03-12T04:09:20.478Z,4.20
2019-03-12T04:11:46.694Z,4.20
2019-03-12T04:14:12.998Z,4.10
2019-03-12T04:16:39.409Z,4.10
2019-03-12T04:19:05.712Z,4.10
2019-03-12T04:21:32.019Z,4.20
2019-03-12T04:23:58.232Z,4.10
2019-03-12T04:26:24.932Z,4.20
2019-03-12T04:28:51.228Z,4.10
2019-03-12T04:31:17.437Z,4.10
2019-03-12T04:33:53.590Z,4.10
2019-03-12T04:36:19.803Z,4.10
2019-03-12T04:38:45.998Z,4.10
2019-03-12T04:41:12.243Z,4.10
2019-03-12T04:43:38.438Z,4.10
2019-03-12T04:46:04.681Z,4.00
2019-03-12T04:48:31.056Z,4.00
2019-03-12T04:50:57.250Z,4.00
2019-03-12T04:53:23.482Z,4.10
2019-03-12T04:55:49.706Z,4.00
2019-03-12T04:58:15.944Z,4.10
2019-03-12T05:00:42.147Z,4.10
2019-03-12T05:03:08.355Z,4.10
2019-03-12T05:05:34.567Z,4.10
2019-03-12T05:08:00.795Z,4.10
2019-03-12T05:10:27.011Z,4.20
2019-03-12T05:12:53.210Z,4.20
2019-03-12T05:15:19.475Z,4.30
2019-03-12T05:17:46.050Z,4.30
2019-03-12T05:20:13.352Z,4.30
2019-03-12T05:22:39.583Z,4.40
2019-03-12T05:25:08.485Z,4.50
2019-03-12T05:27:34.784Z,4.50
2019-03-12T05:30:01.415Z,4.50
2019-03-12T05:32:27.619Z,4.50
2019-03-12T05:34:53.844Z,4.60
2019-03-12T05:37:20.159Z,4.60
2019-03-12T05:39:46.371Z,4.60
2019-03-12T05:42:12.798Z,4.60
2019-03-12T05:44:39.002Z,4.70
2019-03-12T05:47:08.000Z,4.70
2019-03-12T05:49:33.727Z,4.70
2019-03-12T05:51:59.938Z,4.60
2019-03-12T05:54:26.163Z,4.50
2019-03-12T05:56:52.387Z,4.50
2019-03-12T05:59:18.582Z,4.50
2019-03-12T06:01:46.744Z,4.40
2019-03-12T06:04:12.963Z,4.50
2019-03-12T06:06:39.154Z,4.50
2019-03-12T06:09:05.666Z,4.50
2019-03-12T06:11:31.891Z,4.50
2019-03-12T06:13:58.195Z,4.50
2019-03-12T06:16:24.599Z,4.50
2019-03-12T06:18:50.791Z,4.60
2019-03-12T06:21:17.006Z,4.60
2019-03-12T06:23:43.210Z,4.70
2019-03-12T06:26:09.431Z,4.70
2019-03-12T06:28:35.631Z,4.70
2019-03-12T06:31:20.841Z,4.70
2019-03-12T06:33:51.631Z,4.80
2019-03-12T06:36:22.534Z,4.80
2019-03-12T06:38:56.702Z,4.90
2019-03-12T06:41:27.886Z,4.90
2019-03-12T06:44:05.207Z,5.00
2019-03-12T06:46:36.355Z,5.10
2019-03-12T06:49:04.571Z,5.10
2019-03-12T06:51:49.070Z,5.20
2019-03-12T06:54:17.169Z,5.30
2019-03-12T06:56:48.067Z,5.40
2019-03-12T06:59:28.275Z,5.30
2019-03-12T07:01:59.291Z,5.40
2019-03-12T07:04:30.159Z,5.50
2019-03-12T07:07:00.849Z,5.60
2019-03-12T07:09:31.552Z,5.80
2019-03-12T07:12:14.990Z,5.90
2019-03-12T07:14:51.972Z,6.00
2019-03-12T07:17:36.675Z,6.00
2019-03-12T07:20:25.061Z,6.10
2019-03-12T07:22:53.154Z,6.20
2019-03-12T07:25:27.611Z,6.30
2019-03-12T07:27:55.934Z,6.20
2019-03-12T07:30:26.815Z,6.30
2019-03-12T07:33:16.001Z,6.30
2019-03-12T07:35:46.896Z,6.40
2019-03-12T07:38:15.007Z,6.40
2019-03-12T07:41:00.211Z,6.40
2019-03-12T07:43:31.099Z,6.40
2019-03-12T07:45:59.230Z,6.30
2019-03-12T07:48:30.123Z,6.20
2019-03-12T07:51:13.334Z,6.30
2019-03-12T07:53:44.227Z,6.20
2019-03-12T07:56:15.198Z,6.30
2019-03-12T07:58:46.202Z,6.30
2019-03-12T08:01:20.279Z,6.40
2019-03-12T08:03:48.411Z,6.40
2019-03-12T08:06:32.030Z,6.50
2019-03-12T08:09:16.831Z,6.50
2019-03-12T08:11:47.834Z,6.50
2019-03-12T08:14:15.950Z,6.40
2019-03-12T08:16:55.724Z,6.40
2019-03-12T08:19:26.588Z,6.60
2019-03-12T08:21:54.690Z,6.70
2019-03-12T08:24:25.799Z,6.70
2019-03-12T08:26:59.940Z,6.80
2019-03-12T08:29:43.095Z,6.80
2019-03-12T08:32:19.966Z,6.90
2019-03-12T08:35:04.679Z,7.00
2019-03-12T08:37:49.406Z,7.00
2019-03-12T08:40:23.531Z,7.10
2019-03-12T08:43:07.008Z,7.20
2019-03-12T08:45:51.671Z,7.30
2019-03-12T08:48:22.535Z,7.30
2019-03-12T08:50:59.767Z,7.40
2019-03-12T08:53:30.923Z,7.40
2019-03-12T08:55:59.153Z,7.50
2019-03-12T08:58:30.047Z,7.60
2019-03-12T09:01:07.284Z,7.70
2019-03-12T09:03:52.415Z,7.80
2019-03-12T09:06:29.619Z,7.90
2019-03-12T09:09:00.503Z,7.80
2019-03-12T09:11:34.414Z,7.90
2019-03-12T09:14:14.516Z,7.90
2019-03-12T09:16:59.552Z,8.00
2019-03-12T09:19:42.727Z,8.10
2019-03-12T09:22:10.857Z,8.30
2019-03-12T09:24:41.627Z,8.40
2019-03-12T09:27:21.937Z,8.50
2019-03-12T09:29:53.326Z,8.40
2019-03-12T09:32:27.412Z,8.40
2019-03-12T09:35:04.667Z,8.60
2019-03-12T09:37:49.350Z,8.30
2019-03-12T09:40:32.532Z,8.30
2019-03-12T09:43:00.758Z,8.20
2019-03-12T09:45:35.001Z,8.10
2019-03-12T09:48:03.143Z,8.10
2019-03-12T09:50:37.030Z,8.10
2019-03-12T09:53:08.147Z,8.10
2019-03-12T09:55:39.482Z,8.10
2019-03-12T09:58:13.746Z,8.00
2019-03-12T10:00:58.725Z,8.00
2019-03-12T10:03:32.826Z,8.10
2019-03-12T10:06:00.930Z,8.10
2019-03-12T10:08:38.102Z,8.10
2019-03-12T10:11:06.410Z,8.20
2019-03-12T10:13:40.834Z,8.40
2019-03-12T10:16:08.955Z,8.50
2019-03-12T10:18:40.127Z,8.70
2019-03-12T10:21:08.343Z,8.90
2019-03-12T10:23:48.615Z,9.10
2019-03-12T10:26:16.931Z,8.90
2019-03-12T10:28:53.886Z,8.90
2019-03-12T10:31:30.606Z,9.10
2019-03-12T10:33:58.706Z,9.20
2019-03-12T10:36:27.102Z,9.50
2019-03-12T10:39:42.031Z,9.50
2019-03-12T10:42:10.167Z,9.70
2019-03-12T10:44:40.811Z,10.00
2019-03-12T10:47:08.926Z,10.00
2019-03-12T10:49:37.677Z,10.10
2019-03-12T10:52:03.295Z,10.20
2019-03-12T10:54:29.494Z,10.20
2019-03-12T10:56:55.699Z,10.10
2019-03-12T10:59:21.922Z,10.00
2019-03-12T11:01:48.139Z,9.90
2019-03-12T11:04:14.378Z,10.00
2019-03-12T11:06:40.578Z,10.10
2019-03-12T11:09:06.910Z,10.00
2019-03-12T11:11:33.335Z,9.90
2019-03-12T11:13:59.651Z,10.00
2019-03-12T11:16:25.850Z,10.20
2019-03-12T11:18:52.075Z,10.40
2019-03-12T11:21:18.735Z,10.40
2019-03-12T11:23:45.334Z,10.30
2019-03-12T11:26:11.561Z,10.50
2019-03-12T11:28:37.875Z,10.50
2019-03-12T11:31:04.194Z,10.60
2019-03-12T11:33:30.394Z,10.60
2019-03-12T11:35:56.675Z,10.70
2019-03-12T11:38:23.224Z,10.70
2019-03-12T11:40:49.451Z,10.80
2019-03-12T11:43:15.657Z,10.80
2019-03-12T11:45:41.909Z,11.00
2019-03-12T11:48:08.543Z,11.20
2019-03-12T11:50:35.294Z,11.30
2019-03-12T11:53:01.685Z,11.50
2019-03-12T11:55:28.363Z,11.70
2019-03-12T11:57:55.004Z,11.80
2019-03-12T12:00:30.641Z,11.70
2019-03-12T12:03:00.194Z,11.70
2019-03-12T12:05:25.750Z,11.60
2019-03-12T12:07:52.100Z,11.70
2019-03-12T12:10:18.817Z,11.80
2019-03-12T12:12:45.144Z,11.80
2019-03-12T12:15:12.245Z,11.90
2019-03-12T12:17:38.769Z,11.70
2019-03-12T12:20:11.151Z,11.60
2019-03-12T12:22:37.348Z,11.70
2019-03-12T12:25:07.374Z,11.70
2019-03-12T12:27:33.577Z,11.60
2019-03-12T12:30:00.206Z,11.40
2019-03-12T12:32:26.619Z,11.40
2019-03-12T12:34:52.907Z,11.20
2019-03-12T12:37:19.102Z,11.00
2019-03-12T12:39:45.306Z,10.90
2019-03-12T12:42:11.535Z,11.00
2019-03-12T12:44:37.739Z,11.10
2019-03-12T12:47:03.959Z,11.20
2019-03-12T12:49:30.158Z,11.10
2019-03-12T12:51:56.378Z,11.10
2019-03-12T12:54:22.589Z,11.10
2019-03-12T12:56:48.871Z,11.10
2019-03-12T12:59:15.070Z,11.00
2019-03-12T13:01:41.432Z,11.20
2019-03-12T13:04:07.641Z,11.30
2019-03-12T13:06:33.863Z,11.50
2019-03-12T13:09:00.166Z,11.60
2019-03-12T13:11:26.386Z,11.70
2019-03-12T13:13:52.694Z,11.80
2019-03-12T13:16:25.058Z,11.70
2019-03-12T13:18:47.374Z,11.60
2019-03-12T13:21:13.590Z,11.70
2019-03-12T13:23:39.915Z,11.90
2019-03-12T13:26:06.130Z,12.00
2019-03-12T13:28:32.496Z,12.00
2019-03-12T13:30:58.882Z,11.80
2019-03-12T13:33:25.183Z,11.80
2019-03-12T13:35:51.391Z,11.60
2019-03-12T13:38:17.611Z,11.50
2019-03-12T13:40:43.924Z,11.60
2019-03-12T13:43:10.540Z,11.50
2019-03-12T13:45:37.176Z,11.40
2019-03-12T13:48:03.878Z,11.30
2019-03-12T13:50:30.599Z,11.20
2019-03-12T13:52:56.922Z,11.20
2019-03-12T13:55:23.273Z,11.10
2019-03-12T13:57:49.674Z,11.10
2019-03-12T14:00:24.567Z,11.00
2019-03-12T14:02:51.420Z,10.90
2019-03-12T14:05:17.690Z,10.90
2019-03-12T14:07:44.088Z,10.90
2019-03-12T14:10:13.486Z,10.70
2019-03-12T14:12:39.694Z,10.80
2019-03-12T14:15:09.626Z,10.80
2019-03-12T14:17:42.359Z,10.70
2019-03-12T14:20:39.619Z,10.70
2019-03-12T14:23:06.918Z,10.80
2019-03-12T14:25:33.838Z,10.90
2019-03-12T14:28:00.142Z,11.00
2019-03-12T14:30:26.566Z,11.00
2019-03-12T14:32:52.779Z,11.00
2019-03-12T14:35:18.990Z,10.90
2019-03-12T14:37:45.303Z,10.80
2019-03-12T14:40:11.605Z,10.70
2019-03-12T14:42:37.822Z,10.70
2019-03-12T14:45:10.204Z,10.70
2019-03-12T14:47:36.772Z,10.70
2019-03-12T14:50:09.878Z,10.60
2019-03-12T14:52:36.974Z,10.50
2019-03-12T14:55:05.179Z,10.50
2019-03-12T14:57:31.399Z,10.50
2019-03-12T14:59:57.618Z,10.40
2019-03-12T15:02:23.863Z,10.40
2019-03-12T15:04:50.067Z,10.40
2019-03-12T15:07:16.433Z,10.50
2019-03-12T15:09:44.744Z,10.50
2019-03-12T15:12:12.060Z,10.50
2019-03-12T15:14:38.567Z,10.60
2019-03-12T15:17:04.774Z,10.60
2019-03-12T15:19:30.998Z,10.60
2019-03-12T15:21:57.190Z,10.60
2019-03-12T15:24:23.410Z,10.50
2019-03-12T15:26:49.615Z,10.60
2019-03-12T15:29:15.853Z,10.60
2019-03-12T15:31:42.110Z,10.50
2019-03-12T15:34:08.426Z,10.40
2019-03-12T15:36:34.642Z,10.30
2019-03-12T15:39:00.857Z,10.20
2019-03-12T15:41:27.158Z,10.20
2019-03-12T15:43:53.411Z,10.20
2019-03-12T15:46:19.699Z,10.20
2019-03-12T15:48:46.118Z,10.10
2019-03-12T15:51:12.331Z,10.20
2019-03-12T15:53:57.008Z,10.10
2019-03-12T15:56:23.207Z,10.10
2019-03-12T15:58:49.423Z,10.10
2019-03-12T16:01:15.675Z,10.00
2019-03-12T16:03:42.137Z,10.00
2019-03-12T16:06:08.411Z,10.00
2019-03-12T16:08:34.606Z,9.90
2019-03-12T16:11:00.827Z,9.90
2019-03-12T16:13:27.038Z,9.90
2019-03-12T16:15:53.258Z,9.90
2019-03-12T16:18:25.310Z,9.90
2019-03-12T16:20:51.634Z,10.00
2019-03-12T16:23:17.848Z,9.90
2019-03-12T16:25:44.171Z,9.90
2019-03-12T16:28:10.366Z,9.90
2019-03-12T16:30:36.679Z,9.90
2019-03-12T16:33:02.905Z,9.80
2019-03-12T16:35:29.099Z,9.80
2019-03-12T16:37:55.314Z,9.80
2019-03-12T16:40:21.510Z,9.80
2019-03-12T16:42:47.733Z,9.80
2019-03-12T16:45:18.065Z,9.70
2019-03-12T16:47:44.287Z,9.70
2019-03-12T16:50:15.931Z,9.80
2019-03-12T16:52:42.366Z,9.70
2019-03-12T16:55:10.410Z,9.80
2019-03-12T16:57:36.734Z,9.70
2019-03-12T17:00:11.493Z,9.70
2019-03-12T17:02:37.839Z,9.70
2019-03-12T17:05:06.385Z,9.60
2019-03-12T17:07:32.609Z,9.60
2019-03-12T17:09:58.819Z,9.60
2019-03-12T17:12:25.099Z,9.60
2019-03-12T17:14:51.358Z,9.60
2019-03-12T17:17:17.669Z,9.60
2019-03-12T17:19:43.863Z,9.60
2019-03-12T17:22:10.118Z,9.60
2019-03-12T17:24:36.337Z,9.70
2019-03-12T17:27:02.753Z,9.70
2019-03-12T17:29:29.168Z,9.60
2019-03-12T17:31:55.378Z,9.70
2019-03-12T17:34:34.932Z,9.60
2019-03-12T17:37:02.151Z,9.60
2019-03-12T17:39:28.371Z,9.60
2019-03-12T17:41:58.203Z,9.60
2019-03-12T17:44:24.417Z,9.50
2019-03-12T17:46:50.653Z,9.50
2019-03-12T17:49:17.041Z,9.50
2019-03-12T17:51:43.251Z,9.60
2019-03-12T17:54:09.498Z,9.50
2019-03-12T17:56:35.698Z,9.50
2019-03-12T17:59:02.003Z,9.50
2019-03-12T18:01:30.089Z,9.50
2019-03-12T18:03:56.349Z,9.50
2019-03-12T18:06:22.571Z,9.50
2019-03-12T18:08:48.767Z,9.60
2019-03-12T18:11:14.986Z,9.50
2019-03-12T18:13:41.198Z,9.50
2019-03-12T18:16:07.591Z,9.50
2019-03-12T18:18:33.887Z,9.50
2019-03-12T18:21:00.116Z,9.50
2019-03-12T18:23:26.319Z,9.50
2019-03-12T18:26:08.293Z,9.50
2019-03-12T18:28:34.495Z,9.50
2019-03-12T18:31:00.720Z,9.50
2019-03-12T18:33:27.214Z,9.50
2019-03-12T18:35:53.430Z,9.60
2019-03-12T18:38:19.642Z,9.60
2019-03-12T18:40:45.846Z,9.50
2019-03-12T18:43:14.726Z,9.50
2019-03-12T18:45:40.375Z,9.60
2019-03-12T18:48:06.704Z,9.50
2019-03-12T18:50:33.551Z,9.60
2019-03-12T18:52:59.753Z,9.60
2019-03-12T18:55:32.762Z,9.60
2019-03-12T18:57:59.478Z,9.60
2019-03-12T19:00:25.707Z,9.60
2019-03-12T19:02:52.018Z,9.60
2019-03-12T19:05:18.239Z,9.60
2019-03-12T19:07:44.454Z,9.60
2019-03-12T19:10:13.075Z,9.60
2019-03-12T19:12:39.033Z,9.60
2019-03-12T19:15:08.840Z,9.60
2019-03-12T19:17:35.054Z,9.60
2019-03-12T19:20:01.359Z,9.60
2019-03-12T19:22:27.599Z,9.60
2019-03-12T19:24:53.990Z,9.70
2019-03-12T19:27:20.328Z,9.70
2019-03-12T19:29:46.518Z,9.70
2019-03-12T19:32:17.830Z,9.80
2019-03-12T19:34:44.055Z,9.80
2019-03-12T19:37:10.419Z,9.80
2019-03-12T19:39:36.772Z,9.80
2019-03-12T19:42:03.451Z,9.80
2019-03-12T19:44:29.950Z,9.80
2019-03-12T19:46:56.440Z,9.80
2019-03-12T19:49:22.667Z,9.90
2019-03-12T19:51:48.907Z,9.90
2019-03-12T19:54:15.128Z,9.90
2019-03-12T19:56:41.440Z,10.00
2019-03-12T19:59:07.666Z,10.00
2019-03-12T20:01:34.990Z,10.10
2019-03-12T20:04:06.107Z,10.10
2019-03-12T20:06:32.530Z,10.10
2019-03-12T20:08:59.280Z,10.10
2019-03-12T20:11:50.264Z,10.10
2019-03-12T20:14:41.287Z,10.20
2019-03-12T20:17:23.635Z,10.00
2019-03-12T20:20:12.262Z,10.00
2019-03-12T20:23:05.488Z,9.90
